Terminal Aerodrome Forecast
Issued by NWS

Current Version | Previous Version | Text Only | Print | Product List | Glossary Off
Versions: 1 2 3 4 5 6 7 8 9 10 11 12 13 14 15

000
FTUS41 KPBZ 220539
TAFMGW
TAF
KMGW 220539Z 2206/2306 21006KT P6SM BKN200
     FM220800 28008KT P6SM -SHRA OVC035
     FM221100 30007KT 5SM -SHSN BKN025
     FM221600 30007KT P6SM BKN030=

USA.gov is the U.S. government's official web portal to all federal, state and local government web resources and services.